createdAt,value
2022-08-26T00:01:46.680Z,10.30
2022-08-26T00:04:13.927Z,9.70
2022-08-26T00:06:42.677Z,10.05
2022-08-26T00:09:16.225Z,10.80
2022-08-26T00:11:45.364Z,10.65
2022-08-26T00:14:13.975Z,10.77
2022-08-26T00:16:48.116Z,9.95
2022-08-26T00:19:16.639Z,9.10
2022-08-26T00:21:43.693Z,9.63
2022-08-26T00:24:10.347Z,9.73
2022-08-26T00:26:37.749Z,9.90
2022-08-26T00:29:04.443Z,9.43
2022-08-26T00:31:31.956Z,9.90
2022-08-26T00:33:59.277Z,9.93
2022-08-26T00:36:29.669Z,9.38
2022-08-26T00:38:57.411Z,10.32
2022-08-26T00:41:24.097Z,10.13
2022-08-26T00:43:51.757Z,10.85
2022-08-26T00:46:26.833Z,9.95
2022-08-26T00:49:12.079Z,10.15
2022-08-26T00:51:45.750Z,10.25
2022-08-26T00:54:14.463Z,11.00
2022-08-26T00:56:43.179Z,10.88
2022-08-26T00:59:13.101Z,10.27
2022-08-26T01:01:42.525Z,10.43
2022-08-26T01:04:15.888Z,9.70
2022-08-26T01:06:44.300Z,10.52
2022-08-26T01:09:11.807Z,9.48
2022-08-26T01:11:38.830Z,8.80
2022-08-26T01:14:07.446Z,10.15
2022-08-26T01:16:35.622Z,9.85
2022-08-26T01:19:09.896Z,10.20
2022-08-26T01:21:45.381Z,10.55
2022-08-26T01:24:14.911Z,10.82
2022-08-26T01:26:43.216Z,10.25
2022-08-26T01:29:14.885Z,10.30
2022-08-26T01:31:49.555Z,11.05
2022-08-26T01:34:37.852Z,10.95
2022-08-26T01:37:16.098Z,9.48
2022-08-26T01:39:44.722Z,11.23
2022-08-26T01:42:14.547Z,9.77
2022-08-26T01:45:01.243Z,10.00
2022-08-26T01:47:30.799Z,10.05
2022-08-26T01:49:59.628Z,10.73
2022-08-26T01:52:30.158Z,10.40
2022-08-26T01:54:58.377Z,10.15
2022-08-26T01:57:26.208Z,10.23
2022-08-26T01:59:56.748Z,10.55
2022-08-26T02:02:24.517Z,10.55
2022-08-26T02:04:56.949Z,10.18
2022-08-26T02:07:24.411Z,10.63
2022-08-26T02:09:53.973Z,9.98
2022-08-26T02:12:21.196Z,9.40
2022-08-26T02:14:53.783Z,9.88
2022-08-26T02:17:25.390Z,9.73
2022-08-26T02:19:52.402Z,10.70
2022-08-26T02:22:21.250Z,11.00
2022-08-26T02:25:18.006Z,10.15
2022-08-26T02:27:47.756Z,10.60
2022-08-26T02:30:21.332Z,9.73
2022-08-26T02:32:49.587Z,10.13
2022-08-26T02:35:20.339Z,10.63
2022-08-26T02:37:49.429Z,10.10
2022-08-26T02:40:19.218Z,10.35
2022-08-26T02:42:48.747Z,11.20
2022-08-26T02:45:16.352Z,10.88
2022-08-26T02:47:51.469Z,10.98
2022-08-26T02:50:19.545Z,10.20
2022-08-26T02:52:48.223Z,11.13
2022-08-26T02:55:15.583Z,10.48
2022-08-26T02:57:42.358Z,10.23
2022-08-26T03:00:11.878Z,10.15
2022-08-26T03:02:38.517Z,9.65
2022-08-26T03:05:05.877Z,9.95
2022-08-26T03:07:32.786Z,10.35
2022-08-26T03:09:59.551Z,10.07
2022-08-26T03:12:26.794Z,10.68
2022-08-26T03:14:53.540Z,9.65
2022-08-26T03:17:21.241Z,11.10
2022-08-26T03:19:51.767Z,10.75
2022-08-26T03:22:21.012Z,10.95
2022-08-26T03:24:47.765Z,10.13
2022-08-26T03:27:14.473Z,10.02
2022-08-26T03:30:00.215Z,10.70
2022-08-26T03:32:28.069Z,10.20
2022-08-26T03:34:56.379Z,11.48
2022-08-26T03:37:23.252Z,10.20
2022-08-26T03:39:49.989Z,10.75
2022-08-26T03:42:17.317Z,10.00
2022-08-26T03:44:48.486Z,10.77
2022-08-26T03:47:15.726Z,9.98
2022-08-26T03:49:42.435Z,10.95
2022-08-26T03:52:09.232Z,10.48
2022-08-26T03:54:36.909Z,10.32
2022-08-26T03:57:03.684Z,11.27
2022-08-26T03:59:32.024Z,10.88
2022-08-26T04:01:58.711Z,10.60
2022-08-26T04:04:25.709Z,9.90
2022-08-26T04:06:58.378Z,10.98
2022-08-26T04:09:26.252Z,10.65
2022-08-26T04:11:53.880Z,9.63
2022-08-26T04:14:23.873Z,10.40
2022-08-26T04:16:52.515Z,11.00
2022-08-26T04:19:20.784Z,11.55
2022-08-26T04:21:50.945Z,11.70
2022-08-26T04:24:18.612Z,12.10
2022-08-26T04:26:45.714Z,12.10
2022-08-26T04:29:15.432Z,11.52
2022-08-26T04:31:42.366Z,11.68
2022-08-26T04:34:11.057Z,12.80
2022-08-26T04:36:38.508Z,11.25
2022-08-26T04:39:05.433Z,12.13
2022-08-26T04:41:32.916Z,11.32
2022-08-26T04:43:59.999Z,11.45
2022-08-26T04:46:27.486Z,11.68
2022-08-26T04:48:54.209Z,11.88
2022-08-26T04:51:27.347Z,11.57
2022-08-26T04:53:58.984Z,12.52
2022-08-26T04:56:32.600Z,11.38
2022-08-26T04:59:00.757Z,10.98
2022-08-26T05:01:28.339Z,11.10
2022-08-26T05:03:55.977Z,11.07
2022-08-26T05:06:22.730Z,11.65
2022-08-26T05:08:49.719Z,12.70
2022-08-26T05:11:16.602Z,12.18
2022-08-26T05:13:43.303Z,12.32
2022-08-26T05:16:12.393Z,12.27
2022-08-26T05:18:40.498Z,12.50
2022-08-26T05:21:07.564Z,11.93
2022-08-26T05:23:36.244Z,12.18
2022-08-26T05:26:08.837Z,13.45
2022-08-26T05:28:36.440Z,12.55
2022-08-26T05:31:23.604Z,12.45
2022-08-26T05:33:50.744Z,12.77
2022-08-26T05:36:21.064Z,13.13
2022-08-26T05:38:49.081Z,13.45
2022-08-26T05:41:39.432Z,13.82
2022-08-26T05:44:09.813Z,13.00
2022-08-26T05:46:37.712Z,13.50
2022-08-26T05:49:06.465Z,12.93
2022-08-26T05:51:40.544Z,13.68
2022-08-26T05:54:07.380Z,14.10
2022-08-26T05:56:37.629Z,13.52
2022-08-26T05:59:05.228Z,13.73
2022-08-26T06:01:35.819Z,12.95
2022-08-26T06:04:03.157Z,13.38
2022-08-26T06:06:32.627Z,12.80
2022-08-26T06:09:01.641Z,12.88
2022-08-26T06:11:30.644Z,12.65
2022-08-26T06:14:03.261Z,13.48
2022-08-26T06:16:32.302Z,13.50
2022-08-26T06:18:59.060Z,13.90
2022-08-26T06:21:30.763Z,11.70
2022-08-26T06:24:18.996Z,12.68
2022-08-26T06:26:55.077Z,12.95
2022-08-26T06:29:25.464Z,17.42
2022-08-26T06:31:54.025Z,13.98
2022-08-26T06:34:23.365Z,13.65
2022-08-26T06:36:58.574Z,12.52
2022-08-26T06:39:25.525Z,12.52
2022-08-26T06:41:52.362Z,12.30
2022-08-26T06:44:21.015Z,11.75
2022-08-26T06:46:50.490Z,11.60
2022-08-26T06:49:17.876Z,12.57
2022-08-26T06:51:44.637Z,11.35
2022-08-26T06:54:11.510Z,11.88
2022-08-26T06:56:41.753Z,12.30
2022-08-26T06:59:09.960Z,11.73
2022-08-26T07:01:44.992Z,12.70
2022-08-26T07:04:14.517Z,11.27
2022-08-26T07:06:48.841Z,12.25
2022-08-26T07:09:16.815Z,10.88
2022-08-26T07:11:44.491Z,11.40
2022-08-26T07:14:11.718Z,11.50
2022-08-26T07:16:39.953Z,10.85
2022-08-26T07:19:10.878Z,12.73
2022-08-26T07:21:40.427Z,12.07
2022-08-26T07:24:08.126Z,10.48
2022-08-26T07:26:34.902Z,13.43
2022-08-26T07:29:02.001Z,11.13
2022-08-26T07:31:37.369Z,10.38
2022-08-26T07:34:07.588Z,9.40
2022-08-26T07:36:34.545Z,9.38
2022-08-26T07:39:01.314Z,9.98
2022-08-26T07:43:59.607Z,9.70
2022-08-26T07:46:29.941Z,9.38
2022-08-26T07:48:57.474Z,9.65
2022-08-26T07:51:24.832Z,8.60
2022-08-26T07:53:53.047Z,9.05
2022-08-26T07:56:21.178Z,8.95
2022-08-26T07:58:51.435Z,8.77
2022-08-26T08:01:19.812Z,8.63
2022-08-26T08:03:46.902Z,8.43
2022-08-26T08:06:18.605Z,8.55
2022-08-26T08:08:45.335Z,8.75
2022-08-26T08:11:12.306Z,9.00
2022-08-26T08:13:39.438Z,8.57
2022-08-26T08:16:07.167Z,11.35
2022-08-26T08:18:40.179Z,7.97
2022-08-26T08:21:21.860Z,9.32
2022-08-26T08:23:52.128Z,8.85
2022-08-26T08:26:18.986Z,8.35
2022-08-26T08:28:47.754Z,7.47
2022-08-26T08:31:55.872Z,7.85
2022-08-26T08:34:21.430Z,7.60
2022-08-26T08:36:48.654Z,7.35
2022-08-26T08:39:16.761Z,7.25
2022-08-26T08:42:13.896Z,7.40
2022-08-26T08:44:44.204Z,7.22
2022-08-26T08:47:42.047Z,7.32
2022-08-26T08:50:21.319Z,8.90
2022-08-26T08:53:17.433Z,7.40
2022-08-26T08:56:01.917Z,7.55
2022-08-26T08:58:51.567Z,7.32
2022-08-26T09:01:45.338Z,7.38
2022-08-26T09:04:36.493Z,7.50
2022-08-26T09:07:06.571Z,7.72
2022-08-26T09:09:43.221Z,7.38
2022-08-26T09:12:18.972Z,6.90
2022-08-26T09:14:49.123Z,7.57
2022-08-26T09:17:49.536Z,6.90
2022-08-26T09:21:00.311Z,7.97
2022-08-26T09:23:27.272Z,7.25
2022-08-26T09:26:01.051Z,7.10
2022-08-26T09:28:30.636Z,6.47
2022-08-26T09:31:19.613Z,7.03
2022-08-26T09:33:47.145Z,7.68
2022-08-26T09:36:41.274Z,6.90
2022-08-26T09:39:37.768Z,7.53
2022-08-26T09:42:14.289Z,6.80
2022-08-26T09:45:04.877Z,6.03
2022-08-26T09:47:35.968Z,6.40
2022-08-26T09:50:20.077Z,6.68
2022-08-26T09:52:47.293Z,6.80
2022-08-26T09:55:21.637Z,5.72
2022-08-26T09:57:54.093Z,7.03
2022-08-26T10:00:26.299Z,7.03
2022-08-26T10:02:56.036Z,6.30
2022-08-26T10:05:56.760Z,6.85
2022-08-26T10:08:37.112Z,6.38
2022-08-26T10:11:19.269Z,6.85
2022-08-26T10:13:52.584Z,6.60
2022-08-26T10:16:28.532Z,7.18
2022-08-26T10:19:04.725Z,6.85
2022-08-26T10:21:38.947Z,6.93
2022-08-26T10:24:09.029Z,6.50
2022-08-26T10:27:05.117Z,7.13
2022-08-26T10:29:45.652Z,6.88
2022-08-26T10:32:16.409Z,7.18
2022-08-26T10:34:43.773Z,6.82
2022-08-26T10:37:18.000Z,7.25
2022-08-26T10:40:00.681Z,7.63
2022-08-26T10:42:27.355Z,8.05
2022-08-26T10:44:58.474Z,7.75
2022-08-26T10:47:31.683Z,6.63
2022-08-26T10:50:03.426Z,7.22
2022-08-26T10:52:57.611Z,7.47
2022-08-26T10:55:35.555Z,7.47
2022-08-26T10:58:47.059Z,8.55
2022-08-26T11:01:44.010Z,8.00
2022-08-26T11:04:35.336Z,7.53
2022-08-26T11:07:32.848Z,8.07
2022-08-26T11:10:05.215Z,7.85
2022-08-26T11:12:34.588Z,7.30
2022-08-26T11:15:10.000Z,7.60
2022-08-26T11:17:48.647Z,6.85
2022-08-26T11:20:37.274Z,6.95
2022-08-26T11:23:24.024Z,8.32
2022-08-26T11:25:56.989Z,6.82
2022-08-26T11:28:44.607Z,7.20
2022-08-26T11:31:19.124Z,7.40
2022-08-26T11:33:51.735Z,6.47
2022-08-26T11:36:41.612Z,6.88
2022-08-26T11:39:25.387Z,6.38
2022-08-26T11:41:54.147Z,6.93
2022-08-26T11:44:27.046Z,9.15
2022-08-26T11:47:01.581Z,7.18
2022-08-26T11:49:31.740Z,5.75
2022-08-26T11:52:13.786Z,5.65
2022-08-26T11:54:58.688Z,6.00
2022-08-26T11:57:27.088Z,5.25
2022-08-26T11:59:55.095Z,5.18
2022-08-26T12:02:21.878Z,5.45
2022-08-26T12:04:51.035Z,5.65
2022-08-26T12:07:27.502Z,5.32
2022-08-26T12:09:58.597Z,6.05
2022-08-26T12:12:35.136Z,5.30
2022-08-26T12:15:18.497Z,5.88
2022-08-26T12:17:51.719Z,5.45
2022-08-26T12:20:30.679Z,5.65
2022-08-26T12:22:59.132Z,5.75
2022-08-26T12:25:27.934Z,5.70
2022-08-26T12:28:05.426Z,5.28
2022-08-26T12:30:32.132Z,5.13
2022-08-26T12:33:22.359Z,5.07
2022-08-26T12:35:54.811Z,5.50
2022-08-26T12:38:25.438Z,5.10
2022-08-26T12:40:52.543Z,5.47
2022-08-26T12:43:44.476Z,6.53
2022-08-26T12:46:17.859Z,7.43
2022-08-26T12:48:49.024Z,5.43
2022-08-26T12:51:28.592Z,8.23
2022-08-26T12:53:56.239Z,5.50
2022-08-26T12:56:39.479Z,5.18
2022-08-26T12:59:22.235Z,5.57
2022-08-26T13:01:49.514Z,5.47
2022-08-26T13:04:39.147Z,5.32
2022-08-26T13:07:13.471Z,5.15
2022-08-26T13:09:40.151Z,4.47
2022-08-26T13:12:07.029Z,3.47
2022-08-26T13:14:33.808Z,3.65
2022-08-26T13:17:00.486Z,3.25
2022-08-26T13:19:27.294Z,3.40
2022-08-26T13:21:57.283Z,3.47
2022-08-26T13:24:37.089Z,3.17
2022-08-26T13:27:05.543Z,4.00
2022-08-26T13:29:32.543Z,3.60
2022-08-26T13:31:59.863Z,3.80
2022-08-26T13:34:27.467Z,3.42
2022-08-26T13:36:56.261Z,4.25
2022-08-26T13:39:23.756Z,4.97
2022-08-26T13:41:50.590Z,4.47
2022-08-26T13:44:17.600Z,4.38
2022-08-26T13:49:12.689Z,4.18
2022-08-26T13:51:39.496Z,4.07
2022-08-26T13:54:06.440Z,4.22
2022-08-26T13:56:33.883Z,4.55
2022-08-26T13:59:01.336Z,4.88
2022-08-26T14:01:30.291Z,4.82
2022-08-26T14:03:57.933Z,5.15
2022-08-26T14:06:25.237Z,4.75
2022-08-26T14:08:51.962Z,4.85
2022-08-26T14:11:19.025Z,5.18
2022-08-26T14:13:45.797Z,4.82
2022-08-26T14:16:22.105Z,5.05
2022-08-26T14:18:50.934Z,5.15
2022-08-26T14:21:18.270Z,5.10
2022-08-26T14:23:45.223Z,5.00
2022-08-26T14:26:19.007Z,4.95
2022-08-26T14:31:24.532Z,4.53
2022-08-26T14:33:51.346Z,4.97
2022-08-26T14:36:32.266Z,4.93
2022-08-26T14:39:02.586Z,4.32
2022-08-26T14:41:31.210Z,4.28
2022-08-26T14:44:01.716Z,4.00
2022-08-26T14:46:30.160Z,4.07
2022-08-26T14:49:02.018Z,4.53
2022-08-26T14:51:30.123Z,4.13
2022-08-26T14:54:11.830Z,4.28
2022-08-26T14:57:04.861Z,3.97
2022-08-26T14:59:38.288Z,4.72
2022-08-26T15:02:09.307Z,4.13
2022-08-26T15:04:44.512Z,4.20
2022-08-26T15:07:18.452Z,4.10
2022-08-26T15:12:19.958Z,4.30
2022-08-26T15:14:46.878Z,6.05
2022-08-26T15:17:16.889Z,4.55
2022-08-26T15:19:46.015Z,4.75
2022-08-26T15:22:18.476Z,4.80
2022-08-26T15:25:09.517Z,4.72
2022-08-26T15:27:39.485Z,4.07
2022-08-26T15:30:18.926Z,4.57
2022-08-26T15:32:45.612Z,4.47
2022-08-26T15:35:12.509Z,4.05
2022-08-26T15:37:39.562Z,4.65
2022-08-26T15:40:12.475Z,4.25
2022-08-26T15:42:57.505Z,4.43
2022-08-26T15:45:44.807Z,4.00
2022-08-26T15:48:26.890Z,4.10
2022-08-26T15:56:51.694Z,4.28
2022-08-26T15:59:19.942Z,4.72
2022-08-26T16:01:46.743Z,6.75
2022-08-26T16:04:14.122Z,6.78
2022-08-26T16:06:42.425Z,6.45
2022-08-26T16:09:09.551Z,5.30
2022-08-26T16:11:37.835Z,5.68
2022-08-26T16:14:05.171Z,6.18
2022-08-26T16:16:32.359Z,6.35
2022-08-26T16:18:59.892Z,6.03
2022-08-26T16:21:32.341Z,6.15
2022-08-26T16:24:00.259Z,5.93
2022-08-26T16:26:32.355Z,5.47
2022-08-26T16:29:04.254Z,5.40
2022-08-26T16:31:31.401Z,6.13
2022-08-26T16:33:58.161Z,6.60
2022-08-26T16:36:24.859Z,5.88
2022-08-26T16:38:55.179Z,5.70
2022-08-26T16:41:27.636Z,5.75
2022-08-26T16:43:55.168Z,5.93
2022-08-26T16:46:25.430Z,6.18
2022-08-26T16:48:54.194Z,6.03
2022-08-26T16:51:26.863Z,6.10
2022-08-26T16:53:55.191Z,6.35
2022-08-26T16:56:27.677Z,6.35
2022-08-26T16:59:00.800Z,6.85
2022-08-26T17:01:27.773Z,6.50
2022-08-26T17:03:54.514Z,6.80
2022-08-26T17:06:21.350Z,6.93
2022-08-26T17:08:48.131Z,7.32
2022-08-26T17:11:15.406Z,7.18
2022-08-26T17:13:42.160Z,6.97
2022-08-26T17:16:11.361Z,7.28
2022-08-26T17:18:38.363Z,6.93
2022-08-26T17:21:08.310Z,7.57
2022-08-26T17:23:35.857Z,7.68
2022-08-26T17:26:02.891Z,7.78
2022-08-26T17:28:29.574Z,6.65
2022-08-26T17:30:57.860Z,6.85
2022-08-26T17:33:25.637Z,7.13
2022-08-26T17:35:53.089Z,7.00
2022-08-26T17:38:21.037Z,6.78
2022-08-26T17:40:47.782Z,6.97
2022-08-26T17:43:14.470Z,7.13
2022-08-26T17:45:41.549Z,7.15
2022-08-26T17:48:08.647Z,6.28
2022-08-26T17:50:35.594Z,5.60
2022-08-26T17:53:02.295Z,5.75
2022-08-26T17:55:29.127Z,5.97
2022-08-26T17:57:55.857Z,5.90
2022-08-26T18:00:26.546Z,6.10
2022-08-26T18:02:54.449Z,5.38
2022-08-26T18:05:22.239Z,5.60
2022-08-26T18:07:48.997Z,5.63
2022-08-26T18:10:18.419Z,5.47
2022-08-26T18:12:46.187Z,6.00
2022-08-26T18:15:17.482Z,6.13
2022-08-26T18:17:44.668Z,5.88
2022-08-26T18:20:16.330Z,6.47
2022-08-26T18:22:43.994Z,5.95
2022-08-26T18:25:11.689Z,5.70
2022-08-26T18:27:38.745Z,6.05
2022-08-26T18:30:13.431Z,5.80
2022-08-26T18:32:42.897Z,6.95
2022-08-26T18:35:10.589Z,5.93
2022-08-26T18:37:37.603Z,6.18
2022-08-26T18:40:07.404Z,5.90
2022-08-26T18:42:34.924Z,7.30
2022-08-26T18:45:01.963Z,6.40
2022-08-26T18:47:30.011Z,6.43
2022-08-26T18:49:56.678Z,6.10
2022-08-26T18:52:23.885Z,6.28
2022-08-26T18:54:50.950Z,6.25
2022-08-26T18:57:17.686Z,6.40
2022-08-26T18:59:44.743Z,6.38
2022-08-26T19:02:11.631Z,6.93
2022-08-26T19:04:38.860Z,6.95
2022-08-26T19:07:06.414Z,6.85
2022-08-26T19:09:33.276Z,6.90
2022-08-26T19:12:01.615Z,6.88
2022-08-26T19:14:28.971Z,7.30
2022-08-26T19:16:55.915Z,7.20
2022-08-26T19:19:25.548Z,7.25
2022-08-26T19:21:53.059Z,7.78
2022-08-26T19:24:21.182Z,8.13
2022-08-26T19:26:51.355Z,7.40
2022-08-26T19:29:27.012Z,8.52
2022-08-26T19:31:53.798Z,7.70
2022-08-26T19:34:20.912Z,8.60
2022-08-26T19:36:48.170Z,8.50
2022-08-26T19:39:14.925Z,8.80
2022-08-26T19:41:41.928Z,8.43
2022-08-26T19:44:38.816Z,8.35
2022-08-26T19:47:08.296Z,8.73
2022-08-26T19:49:35.533Z,9.35
2022-08-26T19:52:03.307Z,9.57
2022-08-26T19:54:30.444Z,9.45
2022-08-26T19:56:57.543Z,9.15
2022-08-26T19:59:24.311Z,10.05
2022-08-26T20:02:01.121Z,9.95
2022-08-26T20:04:29.747Z,9.55
2022-08-26T20:06:57.689Z,9.95
2022-08-26T20:09:27.529Z,10.05
2022-08-26T20:11:54.169Z,9.55
2022-08-26T20:14:23.973Z,10.30
2022-08-26T20:16:50.697Z,10.30
2022-08-26T20:19:37.648Z,9.63
2022-08-26T20:22:04.879Z,9.63
2022-08-26T20:24:32.541Z,10.35
2022-08-26T20:26:59.418Z,10.18
2022-08-26T20:29:26.175Z,9.52
2022-08-26T20:31:54.599Z,10.15
2022-08-26T20:34:21.643Z,9.25
2022-08-26T20:36:50.150Z,10.30
2022-08-26T20:39:18.777Z,10.70
2022-08-26T20:41:45.440Z,11.32
2022-08-26T20:44:13.602Z,10.13
2022-08-26T20:46:40.923Z,10.10
2022-08-26T20:49:07.934Z,10.50
2022-08-26T20:51:35.300Z,11.68
2022-08-26T20:54:01.989Z,11.77
2022-08-26T20:56:28.719Z,10.85
2022-08-26T20:59:00.323Z,11.32
2022-08-26T21:01:33.491Z,10.38
2022-08-26T21:04:02.698Z,10.75
2022-08-26T21:06:30.265Z,9.60
2022-08-26T21:08:58.604Z,10.75
2022-08-26T21:11:26.329Z,10.57
2022-08-26T21:14:16.059Z,9.85
2022-08-26T21:16:41.378Z,10.68
2022-08-26T21:19:10.663Z,9.15
2022-08-26T21:21:37.738Z,9.60
2022-08-26T21:24:04.630Z,9.23
2022-08-26T21:26:31.314Z,9.85
2022-08-26T21:28:58.131Z,10.63
2022-08-26T21:31:25.601Z,10.52
2022-08-26T21:33:52.909Z,9.95
2022-08-26T21:36:19.979Z,10.40
2022-08-26T21:38:47.078Z,9.63
2022-08-26T21:41:19.307Z,9.10
2022-08-26T21:43:47.446Z,11.23
2022-08-26T21:46:18.815Z,10.40
2022-08-26T21:48:50.662Z,10.43
2022-08-26T21:51:20.523Z,10.98
2022-08-26T21:53:47.675Z,10.77
2022-08-26T21:56:16.796Z,10.93
2022-08-26T21:58:43.948Z,10.73
2022-08-26T22:01:13.854Z,11.43
2022-08-26T22:03:47.258Z,11.50
2022-08-26T22:08:42.403Z,10.30
2022-08-26T22:11:09.671Z,11.10
2022-08-26T22:13:38.724Z,11.10
2022-08-26T22:16:06.735Z,11.93
2022-08-26T22:18:34.218Z,11.02
2022-08-26T22:21:04.841Z,11.35
2022-08-26T22:23:31.986Z,11.15
2022-08-26T22:25:59.728Z,10.73
2022-08-26T22:28:26.799Z,11.05
2022-08-26T22:30:54.035Z,10.82
2022-08-26T22:33:20.733Z,9.65
2022-08-26T22:35:50.635Z,8.73
2022-08-26T22:38:17.801Z,9.30
2022-08-26T22:40:47.336Z,9.50
2022-08-26T22:43:14.559Z,8.95
2022-08-26T22:45:43.444Z,8.95
2022-08-26T22:48:12.087Z,9.02
2022-08-26T22:50:38.966Z,8.70
2022-08-26T22:53:05.655Z,8.60
2022-08-26T22:55:32.356Z,9.30
2022-08-26T22:57:59.271Z,9.13
2022-08-26T23:00:32.235Z,9.00
2022-08-26T23:03:00.295Z,8.68
2022-08-26T23:05:27.220Z,9.18
2022-08-26T23:07:54.075Z,9.63
2022-08-26T23:10:20.954Z,9.55
2022-08-26T23:12:47.621Z,8.80
2022-08-26T23:15:15.064Z,10.13
2022-08-26T23:17:43.041Z,9.48
2022-08-26T23:20:11.762Z,10.70
2022-08-26T23:22:39.938Z,11.38
2022-08-26T23:25:10.033Z,11.82
2022-08-26T23:27:39.628Z,12.30
2022-08-26T23:30:08.816Z,12.07
2022-08-26T23:32:35.525Z,12.18
2022-08-26T23:35:02.243Z,11.55
2022-08-26T23:37:33.519Z,11.68
2022-08-26T23:40:05.809Z,11.38
2022-08-26T23:42:32.555Z,11.80
2022-08-26T23:44:59.214Z,11.57
2022-08-26T23:47:26.173Z,11.25
2022-08-26T23:49:53.106Z,11.20
2022-08-26T23:52:38.394Z,10.80
2022-08-26T23:55:06.090Z,10.00
2022-08-26T23:57:33.687Z,11.55
